sensor_id;sensor_type;location;lat;lon;timestamp;pressure;altitude;pressure_sealevel;temperature;humidity
47104;BME280;32853;52.164;5.400;2024-01-06T09:27:49;101024.44;;;4.68;100.00
47104;BME280;32853;52.164;5.400;2024-01-06T09:30:19;101023.03;;;4.44;100.00
47104;BME280;32853;52.164;5.400;2024-01-06T09:36:31;101030.44;;;4.72;100.00
47104;BME280;32853;52.164;5.400;2024-01-06T09:39:05;101055.56;;;4.65;100.00
47104;BME280;32853;52.164;5.400;2024-01-06T09:41:39;100912.47;;;3.78;100.00
47104;BME280;32853;52.164;5.400;2024-01-06T09:44:07;100728.50;;;2.51;100.00
47104;BME280;32853;52.164;5.400;2024-01-06T09:46:34;100894.81;;;3.36;100.00
47104;BME280;32853;52.164;5.400;2024-01-06T09:49:01;100707.25;;;2.23;100.00
47104;BME280;32853;52.164;5.400;2024-01-06T09:51:48;101054.78;;;4.58;100.00
47104;BME280;32853;52.164;5.400;2024-01-06T09:55:06;101058.13;;;4.68;100.00
47104;BME280;32853;52.164;5.400;2024-01-06T09:57:41;100673.97;;;1.91;100.00
47104;BME280;32853;52.164;5.400;2024-01-06T10:00:12;101027.69;;;4.12;100.00
47104;BME280;32853;52.164;5.400;2024-01-06T10:13:23;101022.41;;;4.22;100.00
47104;BME280;32853;52.164;5.400;2024-01-06T10:16:18;101090.91;;;4.71;100.00
47104;BME280;32853;52.164;5.400;2024-01-06T10:18:57;101129.91;;;4.57;100.00
47104;BME280;32853;52.164;5.400;2024-01-06T10:21:22;100821.22;;;2.80;100.00
47104;BME280;32853;52.164;5.400;2024-01-06T10:24:02;100868.56;;;2.82;100.00
47104;BME280;32853;52.164;5.400;2024-01-06T10:27:00;100996.13;;;3.77;100.00
47104;BME280;32853;52.164;5.400;2024-01-06T10:29:41;100794.88;;;2.37;100.00
47104;BME280;32853;52.164;5.400;2024-01-06T10:32:14;100907.84;;;3.24;100.00
47104;BME280;32853;52.164;5.400;2024-01-06T10:52:03;100745.13;;;2.16;100.00
47104;BME280;32853;52.164;5.400;2024-01-06T10:57:53;100803.31;;;2.60;100.00
47104;BME280;32853;52.164;5.400;2024-01-06T11:01:03;100837.66;;;2.70;100.00
47104;BME280;32853;52.164;5.400;2024-01-06T11:07:25;101134.41;;;4.40;100.00
47104;BME280;32853;52.164;5.400;2024-01-06T11:17:08;100788.72;;;2.56;100.00
47104;BME280;32853;52.164;5.400;2024-01-06T11:23:21;101145.47;;;4.57;100.00
47104;BME280;32853;52.164;5.400;2024-01-06T11:26:09;101148.03;;;4.58;100.00
47104;BME280;32853;52.164;5.400;2024-01-06T11:29:00;100991.06;;;3.62;100.00
47104;BME280;32853;52.164;5.400;2024-01-06T11:31:34;100855.78;;;2.60;100.00
47104;BME280;32853;52.164;5.400;2024-01-06T11:34:36;100840.38;;;2.51;100.00
47104;BME280;32853;52.164;5.400;2024-01-06T11:37:14;100980.53;;;3.84;100.00
47104;BME280;32853;52.164;5.400;2024-01-06T11:39:52;100833.25;;;2.84;100.00
47104;BME280;32853;52.164;5.400;2024-01-06T11:42:56;100825.69;;;2.55;100.00
47104;BME280;32853;52.164;5.400;2024-01-06T11:45:26;100877.25;;;2.70;100.00
47104;BME280;32853;52.164;5.400;2024-01-06T11:50:51;100823.13;;;2.58;100.00
47104;BME280;32853;52.164;5.400;2024-01-06T12:08:14;100788.72;;;2.53;100.00
47104;BME280;32853;52.164;5.400;2024-01-06T12:10:47;101155.72;;;4.64;100.00
47104;BME280;32853;52.164;5.400;2024-01-06T12:13:14;100802.44;;;2.61;100.00
47104;BME280;32853;52.164;5.400;2024-01-06T12:15:42;100818.69;;;2.72;100.00
47104;BME280;32853;52.164;5.400;2024-01-06T12:18:57;101160.53;;;4.98;100.00
47104;BME280;32853;52.164;5.400;2024-01-06T12:22:21;101157.44;;;4.67;100.00
47104;BME280;32853;52.164;5.400;2024-01-06T12:25:25;100878.84;;;2.86;100.00
47104;BME280;32853;52.164;5.400;2024-01-06T16:24:25;101285.19;;;3.17;100.00
47104;BME280;32853;52.164;5.400;2024-01-06T16:26:57;101232.69;;;2.97;100.00
47104;BME280;32853;52.164;5.400;2024-01-06T16:29:24;101249.88;;;3.23;100.00
47104;BME280;32853;52.164;5.400;2024-01-06T16:31:50;101255.00;;;3.33;100.00
47104;BME280;32853;52.164;5.400;2024-01-06T16:34:17;100973.97;;;1.82;100.00
47104;BME280;32853;52.164;5.400;2024-01-06T16:36:45;101427.09;;;4.26;100.00
47104;BME280;32853;52.164;5.400;2024-01-06T16:39:10;101078.81;;;2.23;100.00
47104;BME280;32853;52.164;5.400;2024-01-06T16:41:41;101211.13;;;3.12;100.00
47104;BME280;32853;52.164;5.400;2024-01-06T16:44:15;101084.81;;;2.34;100.00
47104;BME280;32853;52.164;5.400;2024-01-06T16:47:01;101100.22;;;2.60;100.00
47104;BME280;32853;52.164;5.400;2024-01-06T16:49:29;101048.63;;;2.40;100.00
47104;BME280;32853;52.164;5.400;2024-01-06T16:52:19;101406.28;;;4.46;100.00
47104;BME280;32853;52.164;5.400;2024-01-06T16:54:47;101023.84;;;1.69;100.00
47104;BME280;32853;52.164;5.400;2024-01-06T16:57:27;101075.41;;;2.02;100.00
47104;BME280;32853;52.164;5.400;2024-01-06T17:00:01;101026.41;;;1.77;100.00
47104;BME280;32853;52.164;5.400;2024-01-06T17:02:32;101416.81;;;3.98;100.00
47104;BME280;32853;52.164;5.400;2024-01-06T17:05:22;101069.38;;;1.93;100.00
47104;BME280;32853;52.164;5.400;2024-01-06T17:07:48;101048.75;;;1.61;100.00
47104;BME280;32853;52.164;5.400;2024-01-06T17:10:15;101080.56;;;1.90;100.00
47104;BME280;32853;52.164;5.400;2024-01-06T17:12:43;101087.44;;;1.70;100.00
47104;BME280;32853;52.164;5.400;2024-01-06T17:15:09;101439.19;;;4.18;100.00
47104;BME280;32853;52.164;5.400;2024-01-06T17:17:35;101282.59;;;3.20;100.00
47104;BME280;32853;52.164;5.400;2024-01-06T17:20:08;101354.88;;;3.68;100.00
47104;BME280;32853;52.164;5.400;2024-01-06T17:22:38;101016.94;;;1.83;100.00
47104;BME280;32853;52.164;5.400;2024-01-06T17:25:14;101092.56;;;2.25;100.00
47104;BME280;32853;52.164;5.400;2024-01-06T17:27:41;101266.31;;;2.68;100.00
47104;BME280;32853;52.164;5.400;2024-01-06T17:30:10;101319.63;;;3.18;100.00
47104;BME280;32853;52.164;5.400;2024-01-06T17:32:35;101322.22;;;3.16;100.00
47104;BME280;32853;52.164;5.400;2024-01-06T17:35:02;101096.88;;;1.50;100.00
47104;BME280;32853;52.164;5.400;2024-01-06T17:37:37;101339.47;;;3.07;100.00
47104;BME280;32853;52.164;5.400;2024-01-06T17:40:11;101178.56;;;2.06;100.00
47104;BME280;32853;52.164;5.400;2024-01-06T17:42:37;101472.94;;;3.86;100.00
47104;BME280;32853;52.164;5.400;2024-01-06T17:45:08;101075.34;;;1.26;100.00
47104;BME280;32853;52.164;5.400;2024-01-06T17:47:33;101088.28;;;1.54;100.00
47104;BME280;32853;52.164;5.400;2024-01-06T17:50:03;101096.88;;;1.60;100.00
47104;BME280;32853;52.164;5.400;2024-01-06T17:52:28;101324.00;;;2.79;100.00
47104;BME280;32853;52.164;5.400;2024-01-06T17:54:54;101151.03;;;1.72;100.00
47104;BME280;32853;52.164;5.400;2024-01-06T17:57:20;101483.31;;;3.69;100.00
47104;BME280;32853;52.164;5.400;2024-01-06T17:59:48;101460.00;;;3.93;100.00
47104;BME280;32853;52.164;5.400;2024-01-06T18:02:18;101443.66;;;3.65;100.00
47104;BME280;32853;52.164;5.400;2024-01-06T18:04:44;101311.06;;;2.75;100.00
47104;BME280;32853;52.164;5.400;2024-01-06T18:07:09;101243.94;;;2.43;100.00
47104;BME280;32853;52.164;5.400;2024-01-06T18:09:47;101366.16;;;3.07;100.00
47104;BME280;32853;52.164;5.400;2024-01-06T18:12:12;101476.34;;;3.97;100.00
47104;BME280;32853;52.164;5.400;2024-01-06T18:14:38;101454.84;;;3.79;100.00
47104;BME280;32853;52.164;5.400;2024-01-06T18:17:04;101287.78;;;2.18;100.00
47104;BME280;32853;52.164;5.400;2024-01-06T18:19:35;101307.63;;;2.48;100.00
47104;BME280;32853;52.164;5.400;2024-01-06T18:22:01;101171.59;;;1.54;100.00
47104;BME280;32853;52.164;5.400;2024-01-06T18:24:29;101485.06;;;3.41;100.00
47104;BME280;32853;52.164;5.400;2024-01-06T18:27:07;101402.38;;;3.12;100.00
47104;BME280;32853;52.164;5.400;2024-01-06T18:29:37;101462.63;;;3.08;100.00
47104;BME280;32853;52.164;5.400;2024-01-06T18:32:08;101503.16;;;3.62;100.00
47104;BME280;32853;52.164;5.400;2024-01-06T18:34:45;101368.75;;;2.98;100.00
47104;BME280;32853;52.164;5.400;2024-01-06T18:37:12;101105.47;;;1.49;100.00
47104;BME280;32853;52.164;5.400;2024-01-06T18:39:45;101520.41;;;3.56;100.00
47104;BME280;32853;52.164;5.400;2024-01-06T18:42:15;101161.31;;;1.57;100.00
47104;BME280;32853;52.164;5.400;2024-01-06T18:44:42;101500.59;;;3.36;100.00
47104;BME280;32853;52.164;5.400;2024-01-06T18:47:22;101359.31;;;2.79;100.00
47104;BME280;32853;52.164;5.400;2024-01-06T18:49:50;101509.19;;;3.52;100.00
47104;BME280;32853;52.164;5.400;2024-01-06T18:52:24;101515.22;;;3.24;100.00
47104;BME280;32853;52.164;5.400;2024-01-06T18:54:53;101472.13;;;3.01;100.00
47104;BME280;32853;52.164;5.400;2024-01-06T18:57:19;101515.22;;;3.11;100.00
47104;BME280;32853;52.164;5.400;2024-01-06T19:00:00;101524.69;;;3.40;100.00
47104;BME280;32853;52.164;5.400;2024-01-06T19:02:27;101303.28;;;2.15;100.00
47104;BME280;32853;52.164;5.400;2024-01-06T19:04:54;101396.25;;;2.50;100.00
47104;BME280;32853;52.164;5.400;2024-01-06T19:07:21;101336.72;;;1.85;100.00
47104;BME280;32853;52.164;5.400;2024-01-06T19:09:46;101534.13;;;3.09;100.00
47104;BME280;32853;52.164;5.400;2024-01-06T19:12:13;101539.31;;;3.19;100.00
47104;BME280;32853;52.164;5.400;2024-01-06T19:14:50;101522.97;;;3.40;100.00
47104;BME280;32853;52.164;5.400;2024-01-06T19:17:16;101397.94;;;2.24;100.00
47104;BME280;32853;52.164;5.400;2024-01-06T19:19:43;101311.78;;;1.88;100.00
47104;BME280;32853;52.164;5.400;2024-01-06T19:22:14;101490.19;;;2.98;100.00
47104;BME280;32853;52.164;5.400;2024-01-06T19:24:49;101306.63;;;1.79;100.00
47104;BME280;32853;52.164;5.400;2024-01-06T19:27:21;101442.72;;;2.55;100.00
47104;BME280;32853;52.164;5.400;2024-01-06T19:30:02;101438.47;;;2.58;100.00
47104;BME280;32853;52.164;5.400;2024-01-06T19:32:30;101427.19;;;2.32;100.00
47104;BME280;32853;52.164;5.400;2024-01-06T19:34:56;101438.44;;;2.51;100.00
47104;BME280;32853;52.164;5.400;2024-01-06T19:37:23;101171.41;;;0.92;100.00
47104;BME280;32853;52.164;5.400;2024-01-06T19:39:49;101371.16;;;1.99;100.00
47104;BME280;32853;52.164;5.400;2024-01-06T19:42:16;101546.13;;;2.84;100.00
47104;BME280;32853;52.164;5.400;2024-01-06T19:44:44;101274.50;;;1.08;100.00
47104;BME280;32853;52.164;5.400;2024-01-06T19:47:12;101346.13;;;1.69;100.00
47104;BME280;32853;52.164;5.400;2024-01-06T19:49:40;101417.56;;;1.90;100.00
47104;BME280;32853;52.164;5.400;2024-01-06T19:52:34;101558.28;;;3.20;100.00
47104;BME280;32853;52.164;5.400;2024-01-06T19:55:06;101581.47;;;2.99;100.00
47104;BME280;32853;52.164;5.400;2024-01-06T19:57:38;101559.91;;;2.84;100.00
47104;BME280;32853;52.164;5.400;2024-01-06T20:00:04;101348.53;;;1.40;100.00
47104;BME280;32853;52.164;5.400;2024-01-06T20:02:34;101575.44;;;2.95;100.00
47104;BME280;32853;52.164;5.400;2024-01-06T20:05:03;101217.63;;;0.70;100.00
47104;BME280;32853;52.164;5.400;2024-01-06T20:07:34;101361.41;;;1.35;100.00
47104;BME280;32853;52.164;5.400;2024-01-06T20:10:01;101181.38;;;0.40;100.00
47104;BME280;32853;52.164;5.400;2024-01-06T20:12:34;101236.50;;;0.75;100.00
47104;BME280;32853;52.164;5.400;2024-01-06T20:15:01;101582.25;;;2.72;100.00
47104;BME280;32853;52.164;5.400;2024-01-06T20:17:29;101351.91;;;1.28;100.00
47104;BME280;32853;52.164;5.400;2024-01-06T20:20:10;101599.50;;;2.77;100.00
47104;BME280;32853;52.164;5.400;2024-01-06T20:22:37;101234.63;;;0.48;100.00
47104;BME280;32853;52.164;5.400;2024-01-06T20:25:12;101639.13;;;2.84;100.00
47104;BME280;32853;52.164;5.400;2024-01-06T20:27:37;101608.03;;;2.59;100.00
47104;BME280;32853;52.164;5.400;2024-01-06T20:30:04;101509.59;;;1.97;100.00
47104;BME280;32853;52.164;5.400;2024-01-06T20:32:29;101637.34;;;2.74;100.00
47104;BME280;32853;52.164;5.400;2024-01-06T20:34:58;101205.28;;;0.25;100.00
47104;BME280;32853;52.164;5.400;2024-01-06T20:37:29;101596.81;;;2.56;100.00
47104;BME280;32853;52.164;5.400;2024-01-06T20:40:09;101169.38;;;0.42;100.00
47104;BME280;32853;52.164;5.400;2024-01-06T20:42:35;101237.94;;;0.35;100.00
47104;BME280;32853;52.164;5.400;2024-01-06T20:45:00;101221.47;;;0.15;100.00
47104;BME280;32853;52.164;5.400;2024-01-06T20:47:35;101438.81;;;1.52;100.00
47104;BME280;32853;52.164;5.400;2024-01-06T20:50:05;101635.56;;;2.59;100.00
47104;BME280;32853;52.164;5.400;2024-01-06T20:52:31;101510.44;;;1.96;100.00
47104;BME280;32853;52.164;5.400;2024-01-06T20:55:01;101331.94;;;0.98;100.00
47104;BME280;32853;52.164;5.400;2024-01-06T20:57:29;101575.00;;;2.02;100.00
47104;BME280;32853;52.164;5.400;2024-01-06T20:59:54;101268.81;;;0.34;100.00
47104;BME280;32853;52.164;5.400;2024-01-06T21:02:22;101605.38;;;2.47;100.00
47104;BME280;32853;52.164;5.400;2024-01-06T21:04:50;101281.13;;;0.71;100.00
47104;BME280;32853;52.164;5.400;2024-01-06T21:07:22;101630.47;;;2.71;100.00
47104;BME280;32853;52.164;5.400;2024-01-06T21:09:48;101513.88;;;1.93;100.00
47104;BME280;32853;52.164;5.400;2024-01-06T21:12:16;101343.75;;;0.72;100.00
47104;BME280;32853;52.164;5.400;2024-01-06T21:14:42;101199.84;;;-0.10;100.00
47104;BME280;32853;52.164;5.400;2024-01-06T21:17:09;101446.34;;;1.23;100.00
47104;BME280;32853;52.164;5.400;2024-01-06T21:19:35;101479.41;;;1.79;100.00
47104;BME280;32853;52.164;5.400;2024-01-06T21:22:01;101412.03;;;1.30;100.00
47104;BME280;32853;52.164;5.400;2024-01-06T21:24:26;101298.22;;;0.66;100.00
47104;BME280;32853;52.164;5.400;2024-01-06T21:26:57;101497.72;;;2.25;100.00
47104;BME280;32853;52.164;5.400;2024-01-06T21:29:23;101266.59;;;0.79;100.00
47104;BME280;32853;52.164;5.400;2024-01-06T21:31:48;101618.22;;;2.35;100.00
47104;BME280;32853;52.164;5.400;2024-01-06T21:34:14;101483.56;;;1.62;100.00
47104;BME280;32853;52.164;5.400;2024-01-06T21:36:40;101310.84;;;0.34;100.00
47104;BME280;32853;52.164;5.400;2024-01-06T21:39:08;101182.72;;;-0.08;100.00
47104;BME280;32853;52.164;5.400;2024-01-06T21:41:33;101434.44;;;1.43;100.00
47104;BME280;32853;52.164;5.400;2024-01-06T21:43:59;101568.09;;;2.01;100.00
47104;BME280;32853;52.164;5.400;2024-01-06T21:46:24;101517.31;;;1.94;100.00
